Time;durP1;ratioP1;P1;durP2;ratioP2;P2;SDS_P1;SDS_P2;PMS_P1;PMS_P2;Temp;Humidity;BMP_temperature;BMP_pressure;BME280_temperature;BME280_humidity;BME280_pressure;Samples;Min_cycle;Max_cycle;Signal;HPM_P1;HPM_P2
2024/02/25 00:00:26;;;;;;;4.50;1.42;;;;;;;7.74;100.00;100266.00;5079416;28;20104;-66
2024/02/25 00:02:52;;;;;;;13.57;0.85;;;;;;;7.68;100.00;100261.34;5087563;28;20036;-66
2024/02/25 00:05:17;;;;;;;3.95;1.50;;;;;;;7.62;100.00;100257.50;5075588;28;20069;-66
2024/02/25 00:07:42;;;;;;;7.47;1.88;;;;;;;7.59;100.00;100263.75;5071987;28;20067;-66
2024/02/25 00:10:08;;;;;;;7.57;1.77;;;;;;;7.56;100.00;100264.00;5082602;28;20032;-66
2024/02/25 00:12:34;;;;;;;8.68;1.75;;;;;;;7.49;100.00;100260.31;5076705;28;20036;-66
2024/02/25 00:14:59;;;;;;;3.92;0.93;;;;;;;7.55;100.00;100249.44;5082832;28;20071;-66
2024/02/25 00:17:25;;;;;;;5.35;1.30;;;;;;;7.63;100.00;100257.38;5083354;28;20512;-66
2024/02/25 00:19:51;;;;;;;5.05;1.40;;;;;;;7.68;100.00;100253.56;5084401;28;20379;-66
2024/02/25 00:22:17;;;;;;;3.97;1.02;;;;;;;7.67;100.00;100255.31;5082134;28;20130;-66
2024/02/25 00:24:42;;;;;;;4.38;1.45;;;;;;;7.62;100.00;100257.50;5082419;28;20416;-66
2024/02/25 00:27:07;;;;;;;6.22;1.15;;;;;;;7.58;100.00;100262.13;5084141;28;20051;-66
2024/02/25 00:29:33;;;;;;;7.50;2.30;;;;;;;7.58;100.00;100256.09;5082509;28;20032;-66
2024/02/25 00:31:58;;;;;;;6.78;1.88;;;;;;;7.57;100.00;100255.28;5077307;28;20024;-66
2024/02/25 00:34:24;;;;;;;8.18;2.08;;;;;;;7.56;100.00;100252.84;5078714;28;20035;-66
2024/02/25 00:36:49;;;;;;;9.38;1.77;;;;;;;7.54;100.00;100254.75;5081559;28;20047;-66
2024/02/25 00:39:18;;;;;;;4.70;0.77;;;;;;;7.48;100.00;100260.44;5086297;28;20050;-66
2024/02/25 00:41:44;;;;;;;2.42;0.40;;;;;;;7.56;100.00;100258.81;5082164;28;20039;-66
2024/02/25 00:44:10;;;;;;;6.85;1.05;;;;;;;7.58;100.00;100254.34;5074397;28;20051;-66
2024/02/25 00:46:36;;;;;;;5.32;0.65;;;;;;;7.62;100.00;100252.31;5082517;28;20507;-66
2024/02/25 00:49:01;;;;;;;2.15;0.52;;;;;;;7.66;100.00;100246.72;5079365;28;20440;-66
2024/02/25 00:51:27;;;;;;;3.88;0.32;;;;;;;7.66;100.00;100249.31;5081038;28;20024;-66
2024/02/25 00:53:52;;;;;;;1.23;0.35;;;;;;;7.66;100.00;100251.09;5082455;28;20028;-66
2024/02/25 00:56:18;;;;;;;3.05;0.50;;;;;;;7.66;100.00;100251.09;5087115;28;20024;-66
2024/02/25 00:58:43;;;;;;;2.45;0.57;;;;;;;7.68;100.00;100245.78;5077601;28;20040;-66
2024/02/25 01:01:14;;;;;;;1.02;0.20;;;;;;;7.66;100.00;100246.72;5080261;28;20122;-66
2024/02/25 01:03:43;;;;;;;2.42;0.52;;;;;;;7.65;100.00;100233.91;5080666;28;20043;-66
2024/02/25 01:06:08;;;;;;;2.55;0.20;;;;;;;7.62;100.00;100240.16;5083367;28;20451;-66
2024/02/25 01:08:39;;;;;;;5.05;0.30;;;;;;;7.61;100.00;100237.69;5079206;28;20112;-66
2024/02/25 01:11:13;;;;;;;7.05;0.30;;;;;;;7.60;100.00;100233.47;5081160;28;20020;-66
2024/02/25 01:13:39;;;;;;;3.63;0.30;;;;;;;7.60;100.00;100228.28;5085661;28;20093;-66
2024/02/25 01:16:05;;;;;;;6.05;0.40;;;;;;;7.62;100.00;100236.75;5081023;28;20406;-66
2024/02/25 01:18:33;;;;;;;1.63;0.30;;;;;;;7.63;100.00;100233.19;5080300;28;20463;-66
2024/02/25 01:20:59;;;;;;;5.18;0.30;;;;;;;7.62;100.00;100232.38;5082655;28;20491;-66
2024/02/25 01:23:25;;;;;;;2.20;0.25;;;;;;;7.66;100.00;100236.34;5086871;28;20024;-66
2024/02/25 01:25:51;;;;;;;5.25;0.28;;;;;;;7.63;100.00;100239.22;5082768;28;20085;-66
2024/02/25 01:28:16;;;;;;;3.08;0.32;;;;;;;7.65;100.00;100242.50;5079207;28;20055;-66
2024/02/25 01:30:42;;;;;;;21.95;0.65;;;;;;;7.65;100.00;100242.50;5079989;28;20043;-66
2024/02/25 01:33:08;;;;;;;1.42;0.20;;;;;;;7.61;100.00;100228.16;5082075;28;20183;-66
2024/02/25 01:35:33;;;;;;;4.60;0.30;;;;;;;7.61;100.00;100232.50;5074337;28;20097;-66
2024/02/25 01:37:59;;;;;;;3.28;0.30;;;;;;;7.61;100.00;100230.75;5085586;28;20063;-66
2024/02/25 01:40:24;;;;;;;2.63;0.30;;;;;;;7.59;100.00;100239.59;5082348;28;20518;-66
2024/02/25 01:43:06;;;;;;;6.72;1.02;;;;;;;7.52;100.00;100228.97;5082130;28;20494;-66
2024/02/25 01:45:32;;;;;;;5.78;0.30;;;;;;;7.48;100.00;100234.53;5079674;28;20036;-66
2024/02/25 01:47:57;;;;;;;5.30;0.60;;;;;;;7.45;100.00;100227.00;5086325;28;20097;-66
2024/02/25 01:50:23;;;;;;;6.68;0.75;;;;;;;7.45;100.00;100227.84;5088285;28;20024;-66
2024/02/25 01:52:53;;;;;;;3.40;0.60;;;;;;;7.49;100.00;100226.63;5089738;28;20157;-66
2024/02/25 01:55:22;;;;;;;7.88;0.50;;;;;;;7.54;100.00;100234.00;5085919;28;20036;-66
2024/02/25 01:57:48;;;;;;;10.25;0.52;;;;;;;7.53;100.00;100228.00;5091252;28;20028;-66
2024/02/25 02:00:16;;;;;;;5.68;0.57;;;;;;;7.52;100.00;100235.91;5086457;28;20032;-66
2024/02/25 02:02:42;;;;;;;3.67;0.70;;;;;;;7.50;100.00;100228.25;5089258;28;20035;-66
2024/02/25 02:05:09;;;;;;;1.77;0.47;;;;;;;7.49;100.00;100226.63;5090182;28;20036;-66
2024/02/25 02:07:38;;;;;;;2.55;0.30;;;;;;;7.51;100.00;100223.91;5088959;28;20043;-66
2024/02/25 02:10:10;;;;;;;3.08;0.40;;;;;;;7.53;100.00;100228.00;5081630;28;20112;-66
2024/02/25 02:12:43;;;;;;;2.05;0.20;;;;;;;7.50;100.00;100238.63;5087678;28;20040;-66
2024/02/25 02:15:10;;;;;;;1.42;0.30;;;;;;;7.51;100.00;100236.88;5086479;28;20483;-66
2024/02/25 02:17:40;;;;;;;2.15;0.30;;;;;;;7.48;100.00;100235.34;5083529;28;20036;-66
2024/02/25 02:20:18;;;;;;;2.15;0.30;;;;;;;7.46;100.00;100237.25;5069285;28;20032;-66
2024/02/25 02:22:44;;;;;;;1.33;0.20;;;;;;;7.44;100.00;100228.78;5071976;28;20040;-66
2024/02/25 02:25:10;;;;;;;1.02;0.28;;;;;;;7.43;100.00;100232.31;5069104;28;20032;-66
2024/02/25 02:27:39;;;;;;;2.28;0.30;;;;;;;7.46;100.00;100232.06;5067750;28;20046;-66
2024/02/25 02:30:06;;;;;;;1.50;0.20;;;;;;;7.44;100.00;100233.97;5070270;28;20036;-66
2024/02/25 02:32:31;;;;;;;4.20;0.32;;;;;;;7.44;100.00;100233.16;5078372;28;20036;-66
2024/02/25 02:34:57;;;;;;;2.40;0.20;;;;;;;7.37;100.00;100232.03;5068969;28;22099;-66
2024/02/25 02:37:22;;;;;;;7.00;0.43;;;;;;;7.36;100.00;100230.38;5071104;28;20428;-66
2024/02/25 02:39:48;;;;;;;4.80;0.20;;;;;;;7.30;100.00;100232.53;5067292;28;20131;-66
2024/02/25 02:42:13;;;;;;;2.33;0.40;;;;;;;7.29;100.00;100232.66;5065481;28;20119;-66
2024/02/25 02:44:39;;;;;;;2.38;0.30;;;;;;;7.25;100.00;100233.88;5063685;28;20039;-66
2024/02/25 02:47:05;;;;;;;8.68;0.20;;;;;;;7.25;100.00;100231.28;5066648;28;20484;-66
2024/02/25 02:49:31;;;;;;;1.20;0.35;;;;;;;7.22;100.00;100234.13;5065947;28;20135;-66
2024/02/25 02:51:58;;;;;;;1.60;0.30;;;;;;;7.19;100.00;100237.78;5069601;28;20020;-66
2024/02/25 02:54:25;;;;;;;1.20;0.20;;;;;;;7.16;100.00;100240.63;5065304;28;20043;-66
2024/02/25 02:56:50;;;;;;;3.13;0.20;;;;;;;7.14;100.00;100237.34;5066090;28;20036;-66
2024/02/25 02:59:16;;;;;;;1.17;0.25;;;;;;;7.15;100.00;100243.34;5065876;28;20085;-66
2024/02/25 03:01:41;;;;;;;5.82;0.22;;;;;;;7.19;100.00;100247.34;5071939;28;20043;-66
2024/02/25 03:04:08;;;;;;;0.85;0.20;;;;;;;7.18;100.00;100232.72;5068942;28;20035;-66
2024/02/25 03:06:33;;;;;;;3.13;0.20;;;;;;;7.18;100.00;100232.72;5073406;28;20070;-66
2024/02/25 03:08:59;;;;;;;11.25;0.38;;;;;;;7.21;100.00;100232.47;5072489;28;20115;-66
2024/02/25 03:11:24;;;;;;;4.38;0.30;;;;;;;7.19;100.00;100231.78;5064735;28;20138;-66
2024/02/25 03:13:50;;;;;;;4.32;0.45;;;;;;;7.18;100.00;100224.97;5065056;28;20502;-66
2024/02/25 03:16:16;;;;;;;4.10;0.20;;;;;;;7.17;100.00;100224.13;5065237;28;20055;-67
2024/02/25 03:18:42;;;;;;;0.80;0.20;;;;;;;7.20;100.00;100223.06;5070239;28;20487;-67
2024/02/25 03:21:07;;;;;;;4.28;0.40;;;;;;;7.23;100.00;100221.03;5068318;28;20082;-66
2024/02/25 03:23:33;;;;;;;3.08;0.38;;;;;;;7.23;100.00;100225.41;5078380;28;20047;-66
2024/02/25 03:25:59;;;;;;;5.82;0.35;;;;;;;7.22;100.00;100227.16;5072234;28;21574;-66
2024/02/25 03:28:24;;;;;;;3.40;0.35;;;;;;;7.22;100.00;100221.16;5068555;28;20035;-66
2024/02/25 03:30:50;;;;;;;1.15;0.20;;;;;;;7.22;100.00;100226.34;5081264;28;20085;-66
2024/02/25 03:33:16;;;;;;;2.17;0.35;;;;;;;7.22;100.00;100223.75;5086588;28;20514;-66
2024/02/25 03:35:41;;;;;;;5.72;0.28;;;;;;;7.16;100.00;100224.25;5081833;28;20093;-66
2024/02/25 03:38:07;;;;;;;0.88;0.30;;;;;;;7.13;100.00;100217.56;5084954;28;20031;-66
2024/02/25 03:40:32;;;;;;;5.47;0.80;;;;;;;7.15;100.00;100220.03;5085317;28;20032;-66
2024/02/25 03:42:58;;;;;;;4.55;0.20;;;;;;;7.15;100.00;100217.44;5079639;28;20039;-66
2024/02/25 03:45:23;;;;;;;3.65;0.40;;;;;;;7.09;100.00;100218.78;5085233;28;20058;-66
2024/02/25 03:47:49;;;;;;;0.32;0.10;;;;;;;7.05;100.00;100214.00;5085064;28;20032;-66
2024/02/25 03:50:14;;;;;;;4.80;0.30;;;;;;;7.03;100.00;100216.72;5079820;28;20029;-66
2024/02/25 03:52:40;;;;;;;4.95;0.22;;;;;;;6.98;100.00;100209.34;5076097;28;20764;-66
2024/02/25 03:55:06;;;;;;;1.08;0.20;;;;;;;6.97;100.00;100210.28;5087406;28;20366;-66
2024/02/25 03:57:32;;;;;;;1.27;0.20;;;;;;;6.94;100.00;100209.72;5078111;28;20037;-66
2024/02/25 03:59:58;;;;;;;0.85;0.20;;;;;;;6.91;100.00;100210.78;5078477;28;20028;-66
2024/02/25 04:02:24;;;;;;;3.33;0.25;;;;;;;6.78;100.00;100212.75;5066280;28;20043;-66
2024/02/25 04:04:49;;;;;;;2.80;0.10;;;;;;;6.72;100.00;100197.72;5065870;28;20502;-66
2024/02/25 04:07:14;;;;;;;3.00;0.22;;;;;;;6.78;100.00;100197.19;5072853;28;20028;-66
2024/02/25 04:09:41;;;;;;;3.25;1.05;;;;;;;6.73;100.00;100196.75;5084879;28;20467;-66
2024/02/25 04:12:07;;;;;;;1.05;0.30;;;;;;;6.54;100.00;100196.66;5067493;28;20028;-66
2024/02/25 04:14:33;;;;;;;3.90;0.20;;;;;;;6.44;100.00;100211.28;5064548;28;20056;-66
2024/02/25 04:16:59;;;;;;;0.93;0.20;;;;;;;6.23;100.00;100199.09;5068886;28;20627;-66
2024/02/25 04:19:25;;;;;;;1.52;0.30;;;;;;;6.13;100.00;100203.41;5070283;28;20044;-66
2024/02/25 04:21:50;;;;;;;4.60;0.35;;;;;;;6.02;100.00;100205.19;5066013;28;20036;-66
2024/02/25 04:24:16;;;;;;;1.55;0.70;;;;;;;5.93;100.00;100211.91;5066427;28;20036;-66
2024/02/25 04:26:45;;;;;;;5.80;0.65;;;;;;;5.85;100.00;100209.06;5069189;28;20059;-66
2024/02/25 04:29:11;;;;;;;6.55;0.80;;;;;;;6.06;100.00;100209.19;5083145;28;20036;-66
2024/02/25 04:31:46;;;;;;;2.28;0.38;;;;;;;6.41;100.00;100211.53;5072171;28;20039;-66
2024/02/25 04:34:12;;;;;;;2.75;0.65;;;;;;;6.73;100.00;100207.13;5066542;28;20040;-66
2024/02/25 04:36:39;;;;;;;3.50;0.30;;;;;;;6.88;100.00;100207.63;5065074;28;20085;-66
2024/02/25 04:39:05;;;;;;;1.08;0.30;;;;;;;6.93;100.00;100201.13;5067586;28;20028;-66
2024/02/25 04:41:31;;;;;;;4.60;0.30;;;;;;;6.95;100.00;100201.81;5066286;28;20040;-66
2024/02/25 04:43:56;;;;;;;4.10;0.30;;;;;;;6.94;100.00;100204.53;5067427;28;20137;-66
2024/02/25 04:46:21;;;;;;;1.42;0.30;;;;;;;6.92;100.00;100191.72;5066128;28;20040;-66
2024/02/25 04:48:49;;;;;;;1.20;0.30;;;;;;;6.91;100.00;100204.78;5064905;28;20036;-66
2024/02/25 04:51:14;;;;;;;3.30;0.40;;;;;;;6.89;100.00;100197.13;5066515;28;20028;-66
2024/02/25 04:53:40;;;;;;;2.55;0.30;;;;;;;6.83;100.00;100202.00;5064863;28;21287;-66
2024/02/25 04:56:06;;;;;;;2.80;0.30;;;;;;;6.82;100.00;100203.78;5069329;28;20040;-66
2024/02/25 04:58:32;;;;;;;3.03;0.43;;;;;;;6.83;100.00;100202.81;5067882;28;20483;-66
2024/02/25 05:00:57;;;;;;;4.30;0.30;;;;;;;6.83;100.00;100209.78;5070151;28;20127;-66
2024/02/25 05:03:23;;;;;;;4.28;0.73;;;;;;;6.83;100.00;100208.00;5067309;28;20036;-66
2024/02/25 05:05:50;;;;;;;1.30;0.20;;;;;;;6.86;100.00;100212.13;5060787;28;20489;-66
2024/02/25 05:08:15;;;;;;;1.17;0.20;;;;;;;6.84;100.00;100219.19;5065439;28;20105;-66
2024/02/25 05:10:41;;;;;;;4.85;0.30;;;;;;;6.83;100.00;100213.19;5070759;28;20024;-66
2024/02/25 05:13:07;;;;;;;4.05;0.30;;;;;;;6.85;100.00;100205.28;5067826;28;20407;-66
2024/02/25 05:15:33;;;;;;;1.80;0.20;;;;;;;6.87;100.00;100208.56;5065440;28;20040;-66
2024/02/25 05:18:00;;;;;;;2.83;0.32;;;;;;;6.81;100.00;100198.72;5066338;28;20032;-66
2024/02/25 05:20:26;;;;;;;2.97;0.30;;;;;;;6.76;100.00;100201.69;5069013;28;20039;-66
2024/02/25 05:22:52;;;;;;;1.45;0.20;;;;;;;6.78;100.00;100199.78;5069293;28;20048;-66
2024/02/25 05:25:18;;;;;;;2.88;0.60;;;;;;;6.75;100.00;100202.63;5071884;28;20123;-66
2024/02/25 05:27:44;;;;;;;2.88;0.20;;;;;;;6.78;100.00;100206.75;5075683;28;20563;-66
2024/02/25 05:30:10;;;;;;;6.03;0.47;;;;;;;6.76;100.00;100201.69;5069188;28;20086;-66
2024/02/25 05:32:36;;;;;;;2.78;0.20;;;;;;;6.75;100.00;100210.41;5085476;28;20036;-66
2024/02/25 05:35:06;;;;;;;3.70;0.40;;;;;;;6.74;100.00;100206.16;5093303;28;20024;-66
2024/02/25 05:37:32;;;;;;;1.58;0.10;;;;;;;6.69;100.00;100203.13;5089717;28;20043;-66
2024/02/25 05:39:57;;;;;;;4.47;0.35;;;;;;;6.73;100.00;100203.72;5088774;28;20027;-66
2024/02/25 05:42:23;;;;;;;3.22;0.40;;;;;;;6.79;100.00;100206.63;5084992;28;20044;-66
2024/02/25 05:44:49;;;;;;;3.38;0.20;;;;;;;6.85;100.00;100205.28;5091122;28;20036;-66
2024/02/25 05:47:14;;;;;;;1.55;0.28;;;;;;;6.91;100.00;100205.59;5089435;28;20038;-66
2024/02/25 05:49:40;;;;;;;4.57;0.30;;;;;;;6.92;100.00;100202.06;5087613;28;20119;-66
2024/02/25 05:52:05;;;;;;;3.50;0.20;;;;;;;6.93;100.00;100205.47;5082154;28;20029;-66
2024/02/25 05:54:31;;;;;;;1.80;0.30;;;;;;;6.91;100.00;100192.66;5085685;28;20036;-66
2024/02/25 05:56:56;;;;;;;5.78;0.45;;;;;;;6.89;100.00;100197.13;5087251;28;20079;-66
2024/02/25 05:59:22;;;;;;;2.88;0.40;;;;;;;6.85;100.00;100193.16;5085875;28;20055;-66
2024/02/25 06:01:48;;;;;;;4.45;0.20;;;;;;;6.85;100.00;100192.34;5068812;28;20101;-66
2024/02/25 06:04:13;;;;;;;3.25;0.30;;;;;;;6.84;100.00;100196.69;5068855;28;20126;-66
2024/02/25 06:06:39;;;;;;;2.78;0.20;;;;;;;6.75;100.00;100188.88;5068561;28;20110;-66
2024/02/25 06:09:06;;;;;;;3.58;0.47;;;;;;;6.74;100.00;100193.22;5069822;28;20110;-66
2024/02/25 06:11:31;;;;;;;4.00;0.28;;;;;;;6.69;100.00;100194.53;5071763;28;20031;-66
2024/02/25 06:13:57;;;;;;;3.33;0.40;;;;;;;6.63;100.00;100190.69;5073442;28;20529;-66
2024/02/25 06:16:23;;;;;;;1.77;0.25;;;;;;;6.59;100.00;100189.31;5088523;28;20043;-66
2024/02/25 06:18:49;;;;;;;5.95;0.30;;;;;;;6.56;100.00;100184.41;5068553;28;20112;-66
2024/02/25 06:21:14;;;;;;;1.35;0.20;;;;;;;6.57;100.00;100178.28;5069882;28;20574;-66
2024/02/25 06:23:40;;;;;;;4.90;0.55;;;;;;;6.52;100.00;100186.41;5067133;28;20033;-66
2024/02/25 06:26:06;;;;;;;6.32;0.47;;;;;;;6.51;100.00;100186.53;5069727;28;20051;-66
2024/02/25 06:28:32;;;;;;;3.65;0.22;;;;;;;6.50;100.00;100190.06;5074182;28;20031;-66
2024/02/25 06:30:57;;;;;;;1.95;0.32;;;;;;;6.48;100.00;100194.56;5075101;28;20046;-66
2024/02/25 06:33:23;;;;;;;1.42;0.30;;;;;;;6.49;100.00;100201.38;5068292;28;20032;-66
2024/02/25 06:35:50;;;;;;;1.85;0.22;;;;;;;6.45;100.00;100194.81;5069282;28;20838;-66
2024/02/25 06:38:15;;;;;;;1.88;0.30;;;;;;;6.48;100.00;100208.31;5068505;28;20044;-66
2024/02/25 06:40:41;;;;;;;3.72;0.30;;;;;;;6.55;100.00;100201.69;5067651;28;20096;-66
2024/02/25 06:43:08;;;;;;;2.85;0.20;;;;;;;6.58;100.00;100203.22;5073496;28;20115;-66
2024/02/25 06:45:35;;;;;;;1.90;0.40;;;;;;;6.55;100.00;100204.28;5067189;28;20044;-66
2024/02/25 06:48:00;;;;;;;3.60;0.30;;;;;;;6.60;100.00;100203.91;5069515;28;20499;-66
2024/02/25 06:50:25;;;;;;;1.85;0.30;;;;;;;6.61;100.00;100213.31;5067783;28;20063;-66
2024/02/25 06:52:51;;;;;;;3.03;0.30;;;;;;;6.65;100.00;100210.31;5068218;28;20796;-66
2024/02/25 06:55:16;;;;;;;2.30;0.20;;;;;;;6.69;100.00;100203.13;5068731;28;20798;-66
2024/02/25 06:57:42;;;;;;;2.88;0.40;;;;;;;6.76;100.00;100206.88;5082862;28;20483;-65
2024/02/25 07:00:08;;;;;;;1.92;0.35;;;;;;;6.82;100.00;100206.38;5076494;28;20040;-65
2024/02/25 07:02:34;;;;;;;1.98;0.20;;;;;;;6.88;100.00;100210.22;5070460;28;20119;-65
2024/02/25 07:04:59;;;;;;;1.83;0.43;;;;;;;6.85;100.00;100213.06;5066221;28;20161;-65
2024/02/25 07:07:25;;;;;;;4.88;0.32;;;;;;;6.80;100.00;100215.19;5066673;28;20035;-65
2024/02/25 07:09:51;;;;;;;1.13;0.30;;;;;;;6.80;100.00;100215.19;5062811;28;20032;-65
2024/02/25 07:12:17;;;;;;;2.47;0.40;;;;;;;6.79;100.00;100214.38;5071674;28;20028;-65
2024/02/25 07:14:44;;;;;;;3.30;0.30;;;;;;;6.85;100.00;100213.88;5069828;28;20091;-65
2024/02/25 07:17:10;;;;;;;0.82;0.20;;;;;;;6.89;100.00;100207.50;5065367;28;21160;-66
2024/02/25 07:19:35;;;;;;;2.60;0.30;;;;;;;6.96;100.00;100208.63;5064156;28;20156;-66
2024/02/25 07:22:01;;;;;;;6.05;0.30;;;;;;;7.03;100.00;100215.91;5070647;28;20399;-66
2024/02/25 07:24:28;;;;;;;0.85;0.20;;;;;;;7.11;100.00;100205.69;5074195;28;20036;-66
2024/02/25 07:26:54;;;;;;;3.78;0.38;;;;;;;7.18;100.00;100206.81;5072553;28;20120;-66
2024/02/25 07:29:19;;;;;;;0.65;0.20;;;;;;;7.12;100.00;100200.38;5068271;28;20424;-66
2024/02/25 07:31:45;;;;;;;2.20;0.43;;;;;;;7.13;100.00;100203.78;5070938;28;20524;-66
2024/02/25 07:34:10;;;;;;;5.28;0.63;;;;;;;7.10;100.00;100204.88;5083980;28;20043;-66
2024/02/25 07:36:36;;;;;;;2.17;0.45;;;;;;;7.12;100.00;100202.16;5082323;28;20051;-66
2024/02/25 07:39:02;;;;;;;1.35;0.20;;;;;;;7.18;100.00;100197.28;5083835;28;20075;-65
2024/02/25 07:41:27;;;;;;;4.15;0.20;;;;;;;7.31;100.00;100195.31;5083305;28;20032;-65
2024/02/25 07:43:53;;;;;;;1.30;0.17;;;;;;;7.37;100.00;100191.38;5084320;28;20436;-65
2024/02/25 07:46:18;;;;;;;2.70;0.30;;;;;;;7.41;100.00;100197.13;5084317;28;20032;-65
2024/02/25 07:48:47;;;;;;;4.15;0.15;;;;;;;7.45;100.00;100196.72;5082556;28;20036;-65
2024/02/25 07:51:12;;;;;;;4.95;0.20;;;;;;;7.46;100.00;100203.56;5084949;28;20059;-65
2024/02/25 07:53:38;;;;;;;3.90;0.20;;;;;;;7.42;100.00;100198.75;5084799;28;20445;-65
2024/02/25 07:56:04;;;;;;;3.70;0.60;;;;;;;7.36;100.00;100210.47;5082566;28;20047;-65
2024/02/25 07:58:29;;;;;;;6.32;1.23;;;;;;;7.27;100.00;100208.66;5084293;28;20423;-64
2024/02/25 08:00:55;;;;;;;6.75;0.90;;;;;;;7.22;100.00;100219.41;5074541;28;20038;-65
2024/02/25 08:03:20;;;;;;;3.13;1.02;;;;;;;7.11;100.00;100226.41;5072205;28;20106;-65
2024/02/25 08:05:46;;;;;;;4.10;0.47;;;;;;;7.03;100.00;100215.91;5063580;28;20042;-65
2024/02/25 08:08:12;;;;;;;2.10;0.30;;;;;;;6.96;100.00;100203.47;5065187;28;20045;-65
2024/02/25 08:10:37;;;;;;;4.88;0.50;;;;;;;6.95;100.00;100209.59;5063096;28;20383;-65
2024/02/25 08:13:04;;;;;;;1.48;0.50;;;;;;;6.95;100.00;100208.75;5067297;28;20056;-65
2024/02/25 08:15:29;;;;;;;1.50;0.43;;;;;;;6.95;100.00;100219.94;5065325;28;20064;-65
2024/02/25 08:17:55;;;;;;;4.50;0.57;;;;;;;6.94;100.00;100222.66;5068403;28;20119;-65
2024/02/25 08:20:20;;;;;;;5.80;0.70;;;;;;;6.95;100.00;100224.31;5068402;28;20036;-65
2024/02/25 08:22:46;;;;;;;13.00;0.57;;;;;;;6.97;100.00;100225.00;5065496;28;20141;-65
2024/02/25 08:25:11;;;;;;;2.45;0.30;;;;;;;7.01;100.00;100225.56;5065911;28;20555;-65
2024/02/25 08:27:37;;;;;;;1.13;0.30;;;;;;;7.04;100.00;100222.72;5063556;28;21278;-65
2024/02/25 08:30:03;;;;;;;1.48;0.30;;;;;;;7.12;100.00;100235.84;5069924;28;20447;-65
2024/02/25 08:32:29;;;;;;;1.65;0.40;;;;;;;7.21;100.00;100230.72;5072868;28;20036;-65
2024/02/25 08:34:55;;;;;;;0.55;0.20;;;;;;;7.53;100.00;100233.19;5063131;28;20033;-65
2024/02/25 08:37:24;;;;;;;2.35;0.20;;;;;;;7.95;100.00;100233.88;5067282;28;20433;-65
2024/02/25 08:39:50;;;;;;;2.15;0.20;;;;;;;8.40;100.00;100245.56;5064175;28;20556;-65
2024/02/25 08:42:17;;;;;;;4.55;0.35;;;;;;;8.64;100.00;100238.16;5066086;28;20040;-65
2024/02/25 08:44:42;;;;;;;2.97;0.47;;;;;;;8.58;100.00;100238.72;5061366;28;20677;-66
2024/02/25 08:47:07;;;;;;;1.75;0.22;;;;;;;8.52;100.00;100242.66;5066232;28;20046;-65
2024/02/25 08:49:33;;;;;;;1.30;0.30;;;;;;;8.31;100.00;100239.38;5066506;28;20849;-66
2024/02/25 08:51:58;;;;;;;2.58;0.60;;;;;;;8.21;100.00;100234.16;5064211;28;21114;-66
2024/02/25 08:54:24;;;;;;;3.55;0.50;;;;;;;8.14;100.00;100227.88;5066994;28;20028;-66
2024/02/25 08:56:49;;;;;;;1.67;0.20;;;;;;;8.08;100.00;100235.38;5070063;28;25700;-66
2024/02/25 08:59:15;;;;;;;1.92;0.30;;;;;;;8.14;100.00;100237.44;5075020;28;20024;-66
2024/02/25 09:01:40;;;;;;;1.75;0.20;;;;;;;8.35;100.00;100229.56;5078369;28;20036;-66
2024/02/25 09:04:05;;;;;;;1.40;0.20;;;;;;;8.56;100.00;100218.06;5075082;28;20031;-66
2024/02/25 09:06:31;;;;;;;1.45;0.20;;;;;;;8.67;100.00;100219.72;5067836;28;20384;-64
2024/02/25 09:08:57;;;;;;;2.63;0.32;;;;;;;8.77;100.00;100220.53;5068563;28;20476;-64
2024/02/25 09:11:23;;;;;;;6.43;0.30;;;;;;;8.62;100.00;100220.13;5069578;28;20035;-65
2024/02/25 09:13:51;;;;;;;3.63;0.40;;;;;;;8.59;100.00;100219.56;5072293;28;21179;-65
2024/02/25 09:16:26;;;;;;;1.38;0.47;;;;;;;8.61;100.00;100213.28;5068161;28;20038;-67
2024/02/25 09:18:51;;;;;;;1.73;0.28;;;;;;;8.63;100.00;100213.16;5073670;28;20036;-60
2024/02/25 09:21:18;;;;;;;1.50;0.20;;;;;;;8.75;100.00;100212.06;5069010;28;20043;-60
2024/02/25 09:23:43;;;;;;;1.67;0.20;;;;;;;8.85;100.00;100202.47;5085589;28;20051;-60
2024/02/25 09:26:09;;;;;;;1.17;0.20;;;;;;;8.96;100.00;100201.50;5077648;28;20941;-60
2024/02/25 09:28:35;;;;;;;4.25;0.17;;;;;;;9.19;100.00;100204.56;5069145;28;20039;-60
2024/02/25 09:31:02;;;;;;;2.05;0.15;;;;;;;9.35;100.00;100209.97;5087815;28;20608;-60
2024/02/25 09:33:30;;;;;;;1.05;0.20;;;;;;;9.42;100.00;100200.66;5092158;28;20100;-60
2024/02/25 09:35:56;;;;;;;2.10;0.20;;;;;;;9.57;100.00;100203.56;5091993;28;20141;-60
2024/02/25 09:38:22;;;;;;;2.95;0.15;;;;;;;9.70;100.00;100203.25;5082166;28;20032;-60
2024/02/25 09:40:58;;;;;;;2.63;0.20;;;;;;;9.86;100.00;100190.44;5065539;28;20055;-60
2024/02/25 09:43:23;;;;;;;;;;;;;;;9.93;97.30;100188.84;5066102;28;20036;-60
2024/02/25 09:45:50;;;;;;;1.00;0.10;;;;;;;10.15;95.86;100187.63;5066724;28;20497;-61
2024/02/25 09:48:17;;;;;;;0.10;0.00;;;;;;;10.46;94.68;100188.06;5072532;28;20479;-60
2024/02/25 09:50:44;;;;;;;1.27;0.10;;;;;;;10.67;96.19;100188.56;5086746;28;20609;-60
2024/02/25 09:53:11;;;;;;;2.88;0.10;;;;;;;10.73;92.85;100182.75;5090334;28;20387;-60
2024/02/25 09:55:36;;;;;;;1.05;0.03;;;;;;;10.68;92.28;100182.38;5084494;28;20090;-60
2024/02/25 09:58:03;;;;;;;0.68;0.08;;;;;;;10.68;94.81;100171.97;5084047;28;20422;-61
2024/02/25 10:00:28;;;;;;;1.90;0.10;;;;;;;10.57;88.94;100172.22;5088499;28;20467;-67
2024/02/25 10:02:54;;;;;;;0.63;0.00;;;;;;;10.50;87.57;100173.78;5085500;28;20043;-60
2024/02/25 10:05:20;;;;;;;0.30;0.00;;;;;;;10.75;93.24;100185.22;5086122;28;20035;-60
2024/02/25 10:08:00;;;;;;;3.25;0.10;;;;;;;10.81;82.74;100167.19;5082295;28;20044;-61
2024/02/25 10:10:25;;;;;;;1.90;0.00;;;;;;;11.02;91.11;100164.19;5091457;28;20028;-61
2024/02/25 10:12:52;;;;;;;0.35;0.10;;;;;;;11.11;91.12;100160.66;5086187;28;20431;-61
2024/02/25 10:15:18;;;;;;;0.63;0.00;;;;;;;11.18;93.23;100153.03;5087043;28;20020;-61
2024/02/25 10:17:43;;;;;;;2.13;0.00;;;;;;;11.18;88.21;100155.66;5084111;28;20460;-61
2024/02/25 10:20:11;;;;;;;0.30;0.10;;;;;;;11.09;87.45;100148.75;5084210;28;20488;-61
2024/02/25 10:22:37;;;;;;;0.52;0.05;;;;;;;11.02;91.70;100151.16;5080474;28;20085;-61
2024/02/25 10:25:04;;;;;;;3.33;0.10;;;;;;;10.90;90.11;100153.19;5087917;28;20036;-61
2024/02/25 10:27:29;;;;;;;1.60;0.10;;;;;;;10.80;87.37;100152.50;5078342;28;20063;-61
2024/02/25 10:29:57;;;;;;;0.50;0.05;;;;;;;10.75;88.52;100154.75;5085930;28;20056;-61
2024/02/25 10:32:24;;;;;;;2.60;0.00;;;;;;;10.78;90.13;100151.84;5085625;28;20021;-61
2024/02/25 10:35:01;;;;;;;1.20;0.08;;;;;;;10.93;91.37;100145.06;5085291;28;20423;-61
2024/02/25 10:37:28;;;;;;;2.80;0.10;;;;;;;10.94;86.32;100135.47;5085133;28;20058;-61
2024/02/25 10:39:56;;;;;;;1.27;0.00;;;;;;;10.93;89.24;100141.66;5088210;28;20127;-61
2024/02/25 10:42:26;;;;;;;0.50;0.10;;;;;;;10.97;87.29;100142.97;5085285;28;20024;-62
2024/02/25 10:44:53;;;;;;;0.43;0.00;;;;;;;10.94;84.08;100140.69;5088589;28;20497;-62
2024/02/25 10:47:20;;;;;;;1.00;0.00;;;;;;;11.04;90.48;100143.19;5085525;28;20036;-62
2024/02/25 10:49:46;;;;;;;0.75;0.10;;;;;;;11.11;88.22;100128.56;5084828;28;20050;-62
2024/02/25 10:52:14;;;;;;;4.22;0.10;;;;;;;11.09;91.45;100123.50;5083748;28;20103;-63
2024/02/25 10:54:41;;;;;;;0.70;0.10;;;;;;;11.05;92.89;100113.53;5086477;28;20118;-62
2024/02/25 10:57:09;;;;;;;0.13;0.00;;;;;;;10.80;86.19;100116.03;5087215;28;20479;-62
2024/02/25 10:59:34;;;;;;;0.30;0.10;;;;;;;11.03;90.30;100110.25;5082926;28;20041;-62
2024/02/25 11:02:00;;;;;;;0.30;0.00;;;;;;;11.35;92.40;100110.38;5083135;28;20086;-61
2024/02/25 11:04:27;;;;;;;1.20;0.10;;;;;;;11.61;90.87;100102.47;5086890;28;20161;-62
2024/02/25 11:06:54;;;;;;;0.20;0.00;;;;;;;11.81;93.03;100101.25;5084737;28;20072;-62
2024/02/25 11:09:22;;;;;;;2.10;0.00;;;;;;;11.92;93.94;100095.69;5089118;28;20069;-62
2024/02/25 11:11:48;;;;;;;4.28;0.08;;;;;;;11.88;93.66;100098.78;5081548;28;20063;-62
2024/02/25 11:14:18;;;;;;;1.35;0.00;;;;;;;11.73;93.79;100096.00;5088098;28;20060;-62
2024/02/25 11:16:46;;;;;;;0.73;0.00;;;;;;;11.51;93.78;100093.97;5082917;28;20444;-62
2024/02/25 11:19:16;;;;;;;0.30;0.00;;;;;;;11.45;95.69;100094.59;5083984;28;20035;-62